createdAt,value
2022-09-13T00:00:55.313Z,71.19
2022-09-13T00:03:23.714Z,71.43
2022-09-13T00:05:52.910Z,72.68
2022-09-13T00:08:21.511Z,72.83
2022-09-13T00:10:51.477Z,73.14
2022-09-13T00:13:19.801Z,74.74
2022-09-13T00:15:50.129Z,73.88
2022-09-13T00:18:20.039Z,73.48
2022-09-13T00:20:48.456Z,72.74
2022-09-13T00:23:16.711Z,72.54
2022-09-13T00:25:44.858Z,73.21
2022-09-13T00:28:14.437Z,73.19
2022-09-13T00:30:42.586Z,71.47
2022-09-13T00:33:10.768Z,71.51
2022-09-13T00:35:38.931Z,72.39
2022-09-13T00:38:07.141Z,73.01
2022-09-13T00:40:38.937Z,72.05
2022-09-13T00:43:13.879Z,72.89
2022-09-13T00:45:43.703Z,72.14
2022-09-13T00:48:20.622Z,72.61
2022-09-13T00:50:54.924Z,73.68
2022-09-13T00:53:29.992Z,72.65
2022-09-13T00:56:02.293Z,73.31
2022-09-13T00:58:35.222Z,72.76
2022-09-13T01:01:05.828Z,73.11
2022-09-13T01:03:36.868Z,73.47
2022-09-13T01:06:08.247Z,73.25
2022-09-13T01:08:39.362Z,73.39
2022-09-13T01:11:13.385Z,72.88
2022-09-13T01:13:42.985Z,73.30
2022-09-13T01:16:12.808Z,73.52
2022-09-13T01:18:41.013Z,74.13
2022-09-13T01:21:55.140Z,75.05
2022-09-13T01:25:02.698Z,74.62
2022-09-13T01:28:01.036Z,76.22
2022-09-13T01:30:36.412Z,75.44
2022-09-13T01:33:35.263Z,77.08
2022-09-13T01:36:41.036Z,77.04
2022-09-13T01:39:16.145Z,78.71
2022-09-13T01:42:01.840Z,82.07
2022-09-13T01:44:45.135Z,84.43
2022-09-13T01:47:25.839Z,86.24
2022-09-13T01:50:13.259Z,84.09
2022-09-13T01:52:54.005Z,86.89
2022-09-13T01:55:38.361Z,93.58
2022-09-13T01:58:18.220Z,92.73
2022-09-13T02:00:52.544Z,92.10
2022-09-13T02:03:29.689Z,91.71
2022-09-13T02:06:03.394Z,97.05
2022-09-13T02:08:39.126Z,95.17
2022-09-13T02:11:11.560Z,94.87
2022-09-13T02:13:44.697Z,90.52
2022-09-13T02:16:18.627Z,93.64
2022-09-13T02:18:53.510Z,92.75
2022-09-13T02:21:25.620Z,89.75
2022-09-13T02:23:57.449Z,88.36
2022-09-13T02:26:27.286Z,91.79
2022-09-13T02:28:59.529Z,88.98
2022-09-13T02:31:33.832Z,89.38
2022-09-13T02:34:09.153Z,90.22
2022-09-13T02:36:41.226Z,90.47
2022-09-13T02:39:14.446Z,93.01
2022-09-13T02:41:49.325Z,90.78
2022-09-13T02:44:25.405Z,89.94
2022-09-13T02:47:06.761Z,89.25
2022-09-13T02:49:51.708Z,88.23
2022-09-13T02:52:32.272Z,89.90
2022-09-13T02:55:14.853Z,89.75
2022-09-13T02:57:53.257Z,88.94
2022-09-13T03:00:21.522Z,88.51
2022-09-13T03:02:51.192Z,88.18
2022-09-13T03:05:20.885Z,87.80
2022-09-13T03:07:50.074Z,89.67
2022-09-13T03:10:19.146Z,87.61
2022-09-13T03:13:09.082Z,89.42
2022-09-13T03:15:53.380Z,88.80
2022-09-13T03:18:37.528Z,89.62
2022-09-13T03:21:18.743Z,89.80
2022-09-13T03:23:56.186Z,90.23
2022-09-13T03:26:46.649Z,90.09
2022-09-13T03:29:27.328Z,89.39
2022-09-13T03:32:08.944Z,89.62
2022-09-13T03:34:44.938Z,88.01
2022-09-13T03:37:22.749Z,87.22
2022-09-13T03:39:57.527Z,87.95
2022-09-13T03:42:32.875Z,87.12
2022-09-13T03:45:03.685Z,86.66
2022-09-13T03:47:35.015Z,86.07
2022-09-13T03:50:04.194Z,85.86
2022-09-13T03:52:34.102Z,85.57
2022-09-13T03:55:02.958Z,85.54
2022-09-13T03:57:31.853Z,86.70
2022-09-13T04:00:01.005Z,86.65
2022-09-13T04:02:29.251Z,86.32
2022-09-13T04:04:57.695Z,86.66
2022-09-13T04:07:27.128Z,86.21
2022-09-13T04:09:56.646Z,87.26
2022-09-13T04:12:24.762Z,87.19
2022-09-13T04:14:52.945Z,86.65
2022-09-13T04:17:21.150Z,87.20
2022-09-13T04:19:49.395Z,88.20
2022-09-13T04:22:17.537Z,89.29
2022-09-13T04:24:45.981Z,90.15
2022-09-13T04:27:15.541Z,91.88
2022-09-13T04:29:43.697Z,93.12
2022-09-13T04:32:11.994Z,93.72
2022-09-13T04:34:40.646Z,92.83
2022-09-13T04:37:09.743Z,93.93
2022-09-13T04:39:37.977Z,96.46
2022-09-13T04:42:07.331Z,96.89
2022-09-13T04:44:36.895Z,96.21
2022-09-13T04:47:05.346Z,96.99
2022-09-13T04:49:33.935Z,97.88
2022-09-13T04:52:02.122Z,96.32
2022-09-13T04:54:31.357Z,97.76
2022-09-13T04:56:59.582Z,98.55
2022-09-13T04:59:27.925Z,97.15
2022-09-13T05:01:57.517Z,98.22
2022-09-13T05:04:25.657Z,100.00
2022-09-13T05:06:53.802Z,99.15
2022-09-13T05:09:22.038Z,97.26
2022-09-13T05:11:50.229Z,97.17
2022-09-13T05:14:18.422Z,97.63
2022-09-13T05:16:46.750Z,96.56
2022-09-13T05:19:16.492Z,97.34
2022-09-13T05:21:44.798Z,98.76
2022-09-13T05:24:13.067Z,97.84
2022-09-13T05:26:41.278Z,97.27
2022-09-13T05:29:09.665Z,96.70
2022-09-13T05:31:39.674Z,96.93
2022-09-13T05:34:10.614Z,97.45
2022-09-13T05:36:40.154Z,94.69
2022-09-13T05:41:57.450Z,96.19
2022-09-13T05:44:25.728Z,95.07
2022-09-13T05:46:53.835Z,95.09
2022-09-13T05:49:22.373Z,96.03
2022-09-13T05:51:51.834Z,95.11
2022-09-13T05:54:20.022Z,93.43
2022-09-13T05:56:48.170Z,94.27
2022-09-13T05:59:16.502Z,94.65
2022-09-13T06:01:45.297Z,96.06
2022-09-13T06:04:14.650Z,96.31
2022-09-13T06:06:42.873Z,95.24
2022-09-13T06:09:14.084Z,96.38
2022-09-13T06:11:42.287Z,96.63
2022-09-13T06:14:11.061Z,96.27
2022-09-13T06:16:39.298Z,95.82
2022-09-13T06:19:07.530Z,95.93
2022-09-13T06:21:36.302Z,95.97
2022-09-13T06:24:05.310Z,96.77
2022-09-13T06:26:35.106Z,97.60
2022-09-13T06:29:03.293Z,98.46
2022-09-13T06:31:31.602Z,98.19
2022-09-13T06:34:02.503Z,97.57
2022-09-13T06:36:31.246Z,97.32
2022-09-13T06:39:00.688Z,95.89
2022-09-13T06:41:29.081Z,95.72
2022-09-13T06:43:59.958Z,96.16
2022-09-13T06:46:30.910Z,95.10
2022-09-13T06:49:01.504Z,94.80
2022-09-13T06:51:30.225Z,94.68
2022-09-13T06:53:58.809Z,94.48
2022-09-13T06:56:28.671Z,92.55
2022-09-13T06:59:00.301Z,93.54
2022-09-13T07:01:31.210Z,93.43
2022-09-13T07:04:01.947Z,93.69
2022-09-13T07:06:32.223Z,92.57
2022-09-13T07:09:02.530Z,91.63
2022-09-13T07:11:32.913Z,92.86
2022-09-13T07:14:02.787Z,93.51
2022-09-13T07:16:32.995Z,94.34
2022-09-13T07:19:02.819Z,93.23
2022-09-13T07:21:31.082Z,93.19
2022-09-13T07:23:59.725Z,94.20
2022-09-13T07:26:29.013Z,93.49
2022-09-13T07:28:59.756Z,93.09
2022-09-13T07:31:31.616Z,92.99
2022-09-13T07:34:01.937Z,91.69
2022-09-13T07:36:32.299Z,94.10
2022-09-13T07:39:01.908Z,93.22
2022-09-13T07:41:31.729Z,94.74
2022-09-13T07:44:01.851Z,92.87
2022-09-13T07:46:32.831Z,93.57
2022-09-13T07:49:02.746Z,93.15
2022-09-13T07:51:32.162Z,91.99
2022-09-13T07:54:02.240Z,93.17
2022-09-13T07:56:32.272Z,92.59
2022-09-13T07:59:01.861Z,94.27
2022-09-13T08:01:35.246Z,92.78
2022-09-13T08:04:05.621Z,94.39
2022-09-13T08:06:35.418Z,93.72
2022-09-13T08:09:04.192Z,93.33
2022-09-13T08:11:34.444Z,90.75
2022-09-13T08:14:03.504Z,91.26
2022-09-13T08:16:34.278Z,91.44
2022-09-13T08:19:04.306Z,91.24
2022-09-13T08:21:35.330Z,90.79
2022-09-13T08:24:04.701Z,91.59
2022-09-13T08:26:35.456Z,91.75
2022-09-13T08:29:06.974Z,91.67
2022-09-13T08:31:36.641Z,90.33
2022-09-13T08:34:04.823Z,91.09
2022-09-13T08:36:33.164Z,91.27
2022-09-13T08:39:02.255Z,90.57
2022-09-13T08:42:07.681Z,91.14
2022-09-13T08:44:38.420Z,89.90
2022-09-13T08:47:28.902Z,89.28
2022-09-13T08:50:05.714Z,90.03
2022-09-13T08:52:37.207Z,90.47
2022-09-13T08:55:25.250Z,88.07
2022-09-13T08:58:01.690Z,87.46
2022-09-13T09:00:38.248Z,89.02
2022-09-13T09:03:19.378Z,89.26
2022-09-13T09:05:49.541Z,88.22
2022-09-13T09:08:27.964Z,89.66
2022-09-13T09:10:58.203Z,90.17
2022-09-13T09:13:32.098Z,89.17
2022-09-13T09:16:03.867Z,89.37
2022-09-13T09:18:36.623Z,88.50
2022-09-13T09:21:06.162Z,87.64
2022-09-13T09:23:40.862Z,88.18
2022-09-13T09:26:18.068Z,88.28
2022-09-13T09:28:51.816Z,86.63
2022-09-13T09:31:27.007Z,86.45
2022-09-13T09:34:09.804Z,86.69
2022-09-13T09:36:43.442Z,85.70
2022-09-13T09:39:16.201Z,85.93
2022-09-13T09:41:45.715Z,85.04
2022-09-13T09:44:20.969Z,84.77
2022-09-13T09:46:53.451Z,85.75
2022-09-13T09:49:45.490Z,85.21
2022-09-13T09:52:17.615Z,85.73
2022-09-13T09:54:46.575Z,85.98
2022-09-13T09:57:14.886Z,84.99
2022-09-13T09:59:44.203Z,84.66
2022-09-13T10:02:22.021Z,84.25
2022-09-13T10:04:59.878Z,83.82
2022-09-13T10:07:33.345Z,85.06
2022-09-13T10:10:06.548Z,85.71
2022-09-13T10:12:37.653Z,86.37
2022-09-13T10:15:15.489Z,86.15
2022-09-13T10:17:43.805Z,85.19
2022-09-13T10:20:26.743Z,85.73
2022-09-13T10:23:18.276Z,83.26
2022-09-13T10:25:57.626Z,83.68
2022-09-13T10:28:27.142Z,82.97
2022-09-13T10:30:59.931Z,85.38
2022-09-13T10:33:32.386Z,82.73
2022-09-13T10:36:06.958Z,83.72
2022-09-13T10:38:39.266Z,83.78
2022-09-13T10:41:13.325Z,84.26
2022-09-13T10:43:41.605Z,84.08
2022-09-13T10:46:17.218Z,84.04
2022-09-13T10:48:47.887Z,84.13
2022-09-13T10:51:36.868Z,84.88
2022-09-13T10:54:25.900Z,84.60
2022-09-13T10:56:54.213Z,84.83
2022-09-13T10:59:24.661Z,85.39
2022-09-13T11:02:24.613Z,83.52
2022-09-13T11:05:06.503Z,82.93
2022-09-13T11:08:22.220Z,83.76
2022-09-13T11:11:04.568Z,83.79
2022-09-13T11:13:44.666Z,84.50
2022-09-13T11:16:30.513Z,85.48
2022-09-13T11:19:27.045Z,86.23
2022-09-13T11:22:17.718Z,86.64
2022-09-13T11:25:08.413Z,83.17
2022-09-13T11:27:48.198Z,84.34
2022-09-13T11:30:19.655Z,85.42
2022-09-13T11:33:08.873Z,86.17
2022-09-13T11:35:51.930Z,87.44
2022-09-13T11:38:32.896Z,87.50
2022-09-13T11:41:14.665Z,86.95
2022-09-13T11:44:04.074Z,87.59
2022-09-13T11:46:41.657Z,86.57
2022-09-13T11:49:49.685Z,87.42
2022-09-13T11:52:31.133Z,90.86
2022-09-13T11:55:14.100Z,90.29
2022-09-13T11:57:44.826Z,90.40
2022-09-13T12:00:22.165Z,88.55
2022-09-13T12:03:01.342Z,89.24
2022-09-13T12:05:34.210Z,87.70
2022-09-13T12:08:04.624Z,85.61
2022-09-13T12:10:39.218Z,87.35
2022-09-13T12:13:13.810Z,86.33
2022-09-13T12:15:45.900Z,88.29
2022-09-13T12:18:20.120Z,89.10
2022-09-13T12:20:52.629Z,87.02
2022-09-13T12:23:26.436Z,86.56
2022-09-13T12:25:59.830Z,85.32
2022-09-13T12:28:31.061Z,82.43
2022-09-13T12:31:05.773Z,82.47
2022-09-13T12:33:34.192Z,81.30
2022-09-13T12:36:32.509Z,81.42
2022-09-13T12:39:29.212Z,80.10
2022-09-13T12:42:19.921Z,80.55
2022-09-13T12:45:03.839Z,80.69
2022-09-13T12:48:04.235Z,79.91
2022-09-13T12:50:58.627Z,79.92
2022-09-13T12:53:59.254Z,80.13
2022-09-13T12:56:45.035Z,83.31
2022-09-13T12:59:39.069Z,85.27
2022-09-13T13:02:27.882Z,85.22
2022-09-13T13:05:01.914Z,84.54
2022-09-13T13:07:33.241Z,84.50
2022-09-13T13:10:03.210Z,80.73
2022-09-13T13:12:34.346Z,81.63
2022-09-13T13:15:04.973Z,80.53
2022-09-13T13:17:47.404Z,78.52
2022-09-13T13:20:47.155Z,76.35
2022-09-13T13:23:23.519Z,74.25
2022-09-13T13:26:07.993Z,76.25
2022-09-13T13:29:04.857Z,78.65
2022-09-13T13:31:41.079Z,76.07
2022-09-13T13:34:29.006Z,76.84
2022-09-13T13:37:02.925Z,76.75
2022-09-13T13:39:37.042Z,77.77
2022-09-13T13:42:14.982Z,76.09
2022-09-13T13:45:07.941Z,74.79
2022-09-13T13:47:53.457Z,76.35
2022-09-13T13:50:21.842Z,70.81
2022-09-13T13:53:03.257Z,71.37
2022-09-13T13:55:44.053Z,73.81
2022-09-13T13:58:36.301Z,75.15
2022-09-13T14:01:06.522Z,71.78
2022-09-13T14:03:51.459Z,71.32
2022-09-13T14:06:30.865Z,72.83
2022-09-13T14:09:12.638Z,72.84
2022-09-13T14:11:53.499Z,73.86
2022-09-13T14:14:42.661Z,74.42
2022-09-13T14:17:35.206Z,74.10
2022-09-13T14:20:07.890Z,72.51
2022-09-13T14:22:36.226Z,72.60
2022-09-13T14:25:23.541Z,74.33
2022-09-13T14:27:57.646Z,76.23
2022-09-13T14:30:29.070Z,77.08
2022-09-13T14:32:58.699Z,76.95
2022-09-13T14:35:30.236Z,76.14
2022-09-13T14:38:11.219Z,74.22
2022-09-13T14:40:41.458Z,74.37
2022-09-13T14:43:22.453Z,73.91
2022-09-13T14:45:55.792Z,74.47
2022-09-13T14:48:32.227Z,74.30
2022-09-13T14:51:04.627Z,74.32
2022-09-13T14:53:36.374Z,75.12
2022-09-13T14:56:09.383Z,76.58
2022-09-13T14:58:45.568Z,76.73
2022-09-13T15:01:16.305Z,76.98
2022-09-13T15:03:45.497Z,76.58
2022-09-13T15:06:24.423Z,76.72
2022-09-13T15:08:53.877Z,77.90
2022-09-13T15:11:35.602Z,77.51
2022-09-13T15:14:17.381Z,77.33
2022-09-13T15:16:50.569Z,78.49
2022-09-13T15:19:49.209Z,78.96
2022-09-13T15:22:23.323Z,79.95
2022-09-13T15:24:53.393Z,79.47
2022-09-13T15:27:26.958Z,79.96
2022-09-13T15:29:57.696Z,80.67
2022-09-13T15:32:32.337Z,80.93
2022-09-13T15:35:02.587Z,80.53
2022-09-13T15:37:37.855Z,80.14
2022-09-13T15:40:22.910Z,84.42
2022-09-13T15:42:53.877Z,85.29
2022-09-13T15:45:24.250Z,83.97
2022-09-13T15:47:53.856Z,85.95
2022-09-13T15:50:26.849Z,85.32
2022-09-13T15:52:55.386Z,85.02
2022-09-13T15:55:24.141Z,85.43
2022-09-13T15:57:54.216Z,83.87
2022-09-13T16:00:24.811Z,84.46
2022-09-13T16:02:53.942Z,85.89
2022-09-13T16:05:22.342Z,90.08
2022-09-13T16:07:50.469Z,94.17
2022-09-13T16:10:22.309Z,93.18
2022-09-13T16:12:51.551Z,95.11
2022-09-13T16:15:21.141Z,96.94
2022-09-13T16:17:49.285Z,95.20
2022-09-13T16:20:17.796Z,97.84
2022-09-13T16:22:45.953Z,100.00
2022-09-13T16:25:15.195Z,100.00
2022-09-13T16:27:44.877Z,100.00
2022-09-13T16:30:14.948Z,100.00
2022-09-13T16:32:44.704Z,100.00
2022-09-13T16:35:13.582Z,100.00
2022-09-13T16:37:43.014Z,100.00
2022-09-13T16:40:12.035Z,100.00
2022-09-13T16:42:40.156Z,100.00
2022-09-13T16:45:08.950Z,100.00
2022-09-13T16:54:09.506Z,100.00
2022-09-13T16:56:37.693Z,100.00
2022-09-13T16:59:05.447Z,100.00
2022-09-13T17:01:33.373Z,100.00
2022-09-13T17:04:01.353Z,100.00
2022-09-13T17:06:30.507Z,100.00
2022-09-13T17:09:01.693Z,100.00
2022-09-13T17:11:33.674Z,100.00
2022-09-13T17:14:04.252Z,100.00
2022-09-13T17:16:34.893Z,100.00
2022-09-13T17:19:06.673Z,100.00
2022-09-13T17:21:36.225Z,100.00
2022-09-13T17:24:07.156Z,100.00
2022-09-13T17:26:36.568Z,100.00
2022-09-13T17:29:04.325Z,100.00
2022-09-13T17:31:32.411Z,100.00
2022-09-13T17:34:00.212Z,100.00
2022-09-13T17:36:27.998Z,100.00
2022-09-13T17:38:58.037Z,100.00
2022-09-13T17:41:26.793Z,100.00
2022-09-13T17:43:55.413Z,100.00
2022-09-13T17:46:27.752Z,100.00
2022-09-13T17:48:57.825Z,100.00
2022-09-13T17:51:27.613Z,100.00
2022-09-13T17:54:00.233Z,100.00
2022-09-13T17:56:30.354Z,100.00
2022-09-13T17:58:59.883Z,100.00
2022-09-13T18:01:27.694Z,100.00
2022-09-13T18:03:56.033Z,100.00
2022-09-13T18:06:23.718Z,100.00
2022-09-13T18:08:53.937Z,100.00
2022-09-13T18:11:23.348Z,100.00
2022-09-13T18:13:51.893Z,100.00
2022-09-13T18:16:21.855Z,100.00
2022-09-13T18:18:51.089Z,100.00
2022-09-13T18:21:20.499Z,100.00
2022-09-13T18:23:49.863Z,100.00
2022-09-13T18:26:20.316Z,100.00
2022-09-13T18:28:55.838Z,100.00
2022-09-13T18:31:24.670Z,100.00
2022-09-13T18:33:56.761Z,100.00
2022-09-13T18:36:25.646Z,100.00
2022-09-13T18:38:55.349Z,100.00
2022-09-13T18:41:24.894Z,100.00
2022-09-13T18:43:56.243Z,100.00
2022-09-13T18:46:26.205Z,100.00
2022-09-13T18:48:57.333Z,100.00
2022-09-13T18:51:27.337Z,100.00
2022-09-13T18:53:55.661Z,100.00
2022-09-13T18:56:24.609Z,100.00
2022-09-13T18:58:54.806Z,100.00
2022-09-13T19:01:24.232Z,100.00
2022-09-13T19:03:53.693Z,100.00
2022-09-13T19:06:24.302Z,100.00
2022-09-13T19:08:53.103Z,100.00
2022-09-13T19:11:45.184Z,100.00
2022-09-13T19:14:17.250Z,100.00
2022-09-13T19:16:45.705Z,100.00
2022-09-13T19:19:13.574Z,100.00
2022-09-13T19:21:41.584Z,100.00
2022-09-13T19:24:16.202Z,100.00
2022-09-13T19:26:46.220Z,100.00
2022-09-13T19:29:17.397Z,100.00
2022-09-13T19:31:47.583Z,100.00
2022-09-13T19:34:15.803Z,100.00
2022-09-13T19:36:44.231Z,100.00
2022-09-13T19:39:12.469Z,100.00
2022-09-13T19:41:41.230Z,100.00
2022-09-13T19:44:09.524Z,100.00
2022-09-13T19:46:40.639Z,100.00
2022-09-13T19:49:10.839Z,100.00
2022-09-13T19:51:40.436Z,100.00
2022-09-13T19:54:11.384Z,100.00
2022-09-13T19:56:40.742Z,100.00
2022-09-13T19:59:09.742Z,100.00
2022-09-13T20:01:41.076Z,100.00
2022-09-13T20:04:11.084Z,100.00
2022-09-13T20:06:40.583Z,100.00
2022-09-13T20:09:09.760Z,100.00
2022-09-13T20:11:42.181Z,100.00
2022-09-13T20:14:10.686Z,100.00
2022-09-13T20:16:41.167Z,100.00
2022-09-13T20:19:29.553Z,100.00
2022-09-13T20:21:56.909Z,100.00
2022-09-13T20:24:25.410Z,100.00
2022-09-13T20:26:53.126Z,100.00
2022-09-13T20:29:20.877Z,100.00
2022-09-13T20:31:49.995Z,100.00
2022-09-13T20:34:17.633Z,100.00
2022-09-13T20:36:47.076Z,100.00
2022-09-13T20:39:16.239Z,100.00
2022-09-13T20:41:44.754Z,100.00
2022-09-13T20:44:12.805Z,100.00
2022-09-13T20:46:42.619Z,100.00
2022-09-13T20:49:11.764Z,100.00
2022-09-13T20:51:39.627Z,100.00
2022-09-13T20:54:08.253Z,100.00
2022-09-13T20:56:36.123Z,100.00
2022-09-13T20:59:05.000Z,100.00
2022-09-13T21:01:34.133Z,100.00
2022-09-13T21:04:02.818Z,100.00
2022-09-13T21:06:37.074Z,100.00
2022-09-13T21:09:03.938Z,100.00
2022-09-13T21:11:34.866Z,100.00
2022-09-13T21:14:04.928Z,100.00
2022-09-13T21:16:34.911Z,100.00
2022-09-13T21:19:03.331Z,100.00
2022-09-13T21:21:34.764Z,100.00
2022-09-13T21:24:04.255Z,100.00
2022-09-13T21:26:33.184Z,100.00
2022-09-13T21:29:01.550Z,100.00
2022-09-13T21:31:32.064Z,100.00
2022-09-13T21:34:01.452Z,100.00
2022-09-13T21:36:30.227Z,100.00
2022-09-13T21:39:00.727Z,100.00
2022-09-13T21:41:29.110Z,100.00
2022-09-13T21:43:57.054Z,100.00
2022-09-13T21:46:26.687Z,100.00
2022-09-13T21:48:56.923Z,100.00
2022-09-13T21:51:26.549Z,100.00
2022-09-13T21:53:58.764Z,100.00
2022-09-13T21:56:30.461Z,100.00
2022-09-13T21:58:59.969Z,100.00
2022-09-13T22:01:29.899Z,100.00
2022-09-13T22:03:58.386Z,100.00
2022-09-13T22:06:31.407Z,100.00
2022-09-13T22:09:02.706Z,100.00
2022-09-13T22:11:33.740Z,100.00
2022-09-13T22:14:02.339Z,100.00
2022-09-13T22:16:31.652Z,100.00
2022-09-13T22:19:06.677Z,100.00
2022-09-13T22:21:39.912Z,100.00
2022-09-13T22:24:09.059Z,100.00
2022-09-13T22:26:40.559Z,100.00
2022-09-13T22:29:09.690Z,100.00
2022-09-13T22:31:40.526Z,100.00
2022-09-13T22:34:09.482Z,100.00
2022-09-13T22:36:37.389Z,100.00
2022-09-13T22:39:05.442Z,100.00
2022-09-13T22:41:35.082Z,100.00
2022-09-13T22:44:05.578Z,100.00
2022-09-13T22:46:35.449Z,100.00
2022-09-13T22:49:04.524Z,100.00
2022-09-13T22:51:32.947Z,100.00
2022-09-13T22:54:06.259Z,100.00
2022-09-13T22:56:36.495Z,100.00
2022-09-13T22:59:07.630Z,100.00
2022-09-13T23:01:36.213Z,100.00
2022-09-13T23:04:04.260Z,100.00
2022-09-13T23:06:33.284Z,100.00
2022-09-13T23:09:03.960Z,100.00
2022-09-13T23:11:33.484Z,100.00
2022-09-13T23:14:03.668Z,100.00
2022-09-13T23:16:35.355Z,100.00
2022-09-13T23:19:03.869Z,100.00
2022-09-13T23:21:33.628Z,100.00
2022-09-13T23:24:02.917Z,100.00
2022-09-13T23:26:31.209Z,100.00
2022-09-13T23:29:00.773Z,100.00
2022-09-13T23:31:30.378Z,100.00
2022-09-13T23:34:02.183Z,100.00
2022-09-13T23:36:31.985Z,100.00
2022-09-13T23:39:02.802Z,100.00
2022-09-13T23:41:31.735Z,100.00
2022-09-13T23:43:59.789Z,100.00
2022-09-13T23:46:27.578Z,100.00
2022-09-13T23:48:55.431Z,100.00
2022-09-13T23:51:26.309Z,100.00
2022-09-13T23:53:56.882Z,100.00
2022-09-13T23:56:25.567Z,100.00
2022-09-13T23:58:53.337Z,100.00
